createdAt,value
2018-10-18T00:01:15.561Z,104829.24
2018-10-18T00:03:43.849Z,104817.39
2018-10-18T00:06:12.137Z,104801.52
2018-10-18T00:08:40.381Z,104817.73
2018-10-18T00:11:08.649Z,104747.98
2018-10-18T00:13:47.228Z,104744.59
2018-10-18T00:16:15.517Z,104820.77
2018-10-18T00:24:46.360Z,104744.84
2018-10-18T00:27:14.637Z,104759.30
2018-10-18T00:29:42.904Z,104680.91
2018-10-18T00:32:11.180Z,104796.75
2018-10-18T00:34:39.518Z,104758.22
2018-10-18T00:37:07.808Z,104696.33
2018-10-18T00:39:36.061Z,104643.98
2018-10-18T00:42:04.446Z,104704.03
2018-10-18T00:44:32.698Z,104624.91
2018-10-18T00:47:00.996Z,104620.44
2018-10-18T00:49:29.290Z,104614.75
2018-10-18T00:51:57.561Z,104617.55
2018-10-18T00:54:25.826Z,104609.06
2018-10-18T00:56:54.120Z,104617.55
2018-10-18T00:59:22.373Z,104636.16
2018-10-18T01:01:50.679Z,104602.23
2018-10-18T01:04:18.949Z,104632.73
2018-10-18T01:06:47.210Z,104574.97
2018-10-18T01:09:15.504Z,104650.56
2018-10-18T01:11:43.782Z,104486.45
2018-10-18T01:14:17.950Z,104533.41
2018-10-18T01:16:46.152Z,104442.08
2018-10-18T01:22:07.488Z,104420.23
2018-10-18T01:24:43.153Z,104422.03
2018-10-18T01:33:07.373Z,104770.02
2018-10-18T01:35:35.636Z,104735.29
2018-10-18T01:38:03.953Z,104726.30
2018-10-18T01:40:32.201Z,104688.33
2018-10-18T01:43:00.457Z,104688.73
2018-10-18T01:45:29.097Z,104702.62
2018-10-18T01:47:57.422Z,104696.28
2018-10-18T01:50:25.645Z,104694.77
2018-10-18T01:52:53.952Z,104697.53
2018-10-18T01:55:22.202Z,104705.13
2018-10-18T01:57:50.482Z,104713.29
2018-10-18T02:00:18.880Z,104698.43
2018-10-18T02:02:47.067Z,104668.38
2018-10-18T02:05:15.363Z,104638.68
2018-10-18T02:07:43.633Z,104628.56
2018-10-18T02:10:11.918Z,104604.17
2018-10-18T02:22:02.568Z,104494.22
2018-10-18T02:24:30.832Z,104429.44
2018-10-18T03:12:45.414Z,103975.50
2018-10-18T03:15:13.694Z,104035.20
2018-10-18T03:17:41.978Z,104154.61
2018-10-18T03:20:10.279Z,103871.14
2018-10-18T03:22:38.586Z,103366.42
2018-10-18T03:27:59.053Z,103159.11
2018-10-18T03:30:27.329Z,102871.14
2018-10-18T03:32:55.609Z,102949.47
2018-10-18T03:35:23.867Z,103070.67
2018-10-18T03:37:52.137Z,103176.94
2018-10-18T03:40:20.393Z,103232.12
2018-10-18T03:42:48.650Z,103338.28
2018-10-18T03:45:16.888Z,103438.77
2018-10-18T03:47:45.145Z,103480.36
2018-10-18T03:50:13.406Z,103480.77
2018-10-18T03:52:41.684Z,102890.80
2018-10-18T03:55:09.921Z,102996.54
2018-10-18T03:57:38.186Z,103104.91
2018-10-18T04:00:07.219Z,103186.18
2018-10-18T04:02:35.570Z,103383.30
2018-10-18T04:05:03.818Z,103391.47
2018-10-18T04:07:32.061Z,103450.56
2018-10-18T04:10:00.298Z,103459.55
2018-10-18T04:15:21.136Z,103722.72
2018-10-18T04:17:49.473Z,103558.47
2018-10-18T04:20:21.006Z,103594.20
2018-10-18T04:22:49.272Z,103550.25
2018-10-18T04:25:35.421Z,103742.15
2018-10-18T05:28:17.179Z,99733.06
2018-10-18T05:30:45.456Z,100103.77
2018-10-18T05:33:13.693Z,99975.20
2018-10-18T05:35:41.953Z,100250.41
2018-10-18T05:38:10.185Z,100384.35
2018-10-18T05:40:38.441Z,100341.87
2018-10-18T05:43:06.754Z,100703.77
2018-10-18T05:45:35.006Z,101064.14
2018-10-18T05:48:03.420Z,101047.23
2018-10-18T05:50:31.664Z,100435.36
2018-10-18T05:53:00.023Z,100408.40
2018-10-18T05:55:28.258Z,100633.63
2018-10-18T05:57:56.504Z,100467.09
2018-10-18T06:00:24.805Z,99641.95
2018-10-18T06:02:53.009Z,99130.90
2018-10-18T06:05:21.269Z,99499.03
2018-10-18T06:07:49.500Z,98644.47
2018-10-18T06:10:29.007Z,99355.75
2018-10-18T06:12:57.224Z,98951.87
2018-10-18T06:21:21.337Z,98539.10
2018-10-18T06:23:49.822Z,97361.72
2018-10-18T07:29:49.342Z,94407.48
2018-10-18T07:32:17.613Z,94168.08
2018-10-18T07:34:45.897Z,94046.25
2018-10-18T07:37:14.179Z,94021.23
2018-10-18T07:39:42.441Z,94000.44
2018-10-18T07:42:10.725Z,93813.27
2018-10-18T07:44:38.997Z,93566.45
2018-10-18T07:47:07.270Z,93563.78
2018-10-18T07:49:35.518Z,88310.09
2018-10-18T07:52:03.818Z,92826.06
2018-10-18T07:54:32.049Z,92984.62
2018-10-18T07:57:00.270Z,93018.09
2018-10-18T07:59:28.546Z,92955.36
2018-10-18T08:01:56.743Z,93006.19
2018-10-18T08:04:24.977Z,92890.65
2018-10-18T08:06:53.282Z,92902.23
2018-10-18T08:09:21.490Z,92871.35
2018-10-18T08:11:49.732Z,92751.00
2018-10-18T08:14:19.496Z,93543.28
2018-10-18T08:16:47.776Z,94829.70
2018-10-18T08:25:11.268Z,101343.70
2018-10-18T08:27:39.426Z,100996.89
2018-10-18T08:30:09.365Z,100934.52
2018-10-18T08:32:43.825Z,100808.06
2018-10-18T08:35:12.795Z,100686.99
2018-10-18T08:37:41.229Z,100622.47
2018-10-18T08:40:09.518Z,100549.45
2018-10-18T08:42:37.757Z,100568.02
2018-10-18T08:45:07.313Z,100492.47
2018-10-18T08:47:35.579Z,100589.03
2018-10-18T08:50:03.925Z,101199.44
2018-10-18T08:52:32.125Z,100973.23
2018-10-18T08:55:00.439Z,100984.34
2018-10-18T08:57:28.648Z,100922.89
2018-10-18T08:59:56.929Z,100803.59
2018-10-18T09:02:25.199Z,100676.63
2018-10-18T09:04:53.507Z,100565.63
2018-10-18T09:07:21.765Z,100592.91
2018-10-18T09:09:50.019Z,100343.01
2018-10-18T09:23:59.087Z,99843.39
2018-10-18T09:26:27.255Z,99904.33
2018-10-18T09:31:48.301Z,100114.86
2018-10-18T09:34:16.557Z,99225.09
2018-10-18T09:36:44.804Z,99589.37
2018-10-18T09:39:13.054Z,99777.30
2018-10-18T09:41:41.314Z,99957.16
2018-10-18T09:44:09.572Z,100083.18
2018-10-18T09:46:38.071Z,100270.70
2018-10-18T09:49:06.374Z,100467.45
2018-10-18T09:51:34.600Z,100684.75
2018-10-18T09:54:03.584Z,100874.41
2018-10-18T09:56:32.818Z,101005.77
2018-10-18T09:59:01.358Z,101143.36
2018-10-18T10:01:34.822Z,101260.91
2018-10-18T10:04:03.137Z,101452.95
2018-10-18T10:06:31.377Z,101500.63
2018-10-18T10:08:59.660Z,101594.27
2018-10-18T10:11:27.965Z,101782.20
2018-10-18T10:13:57.551Z,101896.29
2018-10-18T10:16:25.800Z,101990.43
2018-10-18T10:18:54.084Z,102125.05
2018-10-18T10:27:17.024Z,102435.95
2018-10-18T10:29:45.284Z,102629.20
2018-10-18T10:32:13.561Z,102837.56
2018-10-18T10:34:41.817Z,102979.66
2018-10-18T10:37:10.100Z,103193.58
2018-10-18T10:39:38.353Z,103291.28
2018-10-18T10:42:06.882Z,103516.70
2018-10-18T10:44:35.183Z,103824.34
2018-10-18T10:47:03.408Z,104114.59
2018-10-18T10:49:31.708Z,104271.13
2018-10-18T10:52:00.034Z,104354.42
2018-10-18T10:54:28.275Z,104430.63
2018-10-18T10:56:56.587Z,104502.92
2018-10-18T10:59:24.821Z,104516.17
2018-10-18T11:01:53.104Z,104628.29
2018-10-18T11:04:21.362Z,104658.77
2018-10-18T11:06:49.697Z,104731.84
2018-10-18T11:09:18.086Z,104756.89
2018-10-18T11:11:46.352Z,104765.02
2018-10-18T11:14:14.609Z,104780.24
2018-10-18T11:19:57.598Z,104734.03
2018-10-18T11:22:25.827Z,104733.90
2018-10-18T11:30:49.530Z,104830.88
2018-10-18T11:33:17.883Z,104850.41
2018-10-18T11:35:46.111Z,104832.84
2018-10-18T11:38:15.232Z,104934.65
2018-10-18T11:40:43.565Z,104854.09
2018-10-18T11:43:12.085Z,104852.53
2018-10-18T11:45:40.606Z,104968.91
2018-10-18T11:48:10.210Z,104925.86
2018-10-18T11:50:38.443Z,104954.30
2018-10-18T11:53:06.699Z,105029.20
2018-10-18T11:55:35.197Z,105047.03
2018-10-18T11:58:03.553Z,104976.70
2018-10-18T12:00:31.801Z,104943.57
2018-10-18T12:03:00.040Z,104946.55
2018-10-18T12:05:28.279Z,104932.10
2018-10-18T12:07:56.555Z,104894.23
2018-10-18T12:10:24.801Z,110455.51
2018-10-18T12:13:11.794Z,110707.14
2018-10-18T12:15:40.120Z,110733.67
2018-10-18T12:18:08.420Z,110863.57
2018-10-18T13:29:52.308Z,105993.69
2018-10-18T13:32:20.560Z,105555.14
2018-10-18T13:34:48.797Z,105265.40
2018-10-18T13:37:17.054Z,104974.05
2018-10-18T13:39:45.318Z,104479.30
2018-10-18T13:42:13.599Z,104145.47
2018-10-18T13:44:41.832Z,104055.41
2018-10-18T13:47:10.118Z,103944.10
2018-10-18T13:49:38.390Z,103841.28
2018-10-18T13:52:06.645Z,103751.44
2018-10-18T13:54:34.890Z,103774.96
2018-10-18T13:57:03.707Z,103750.35
2018-10-18T13:59:43.245Z,103751.77
2018-10-18T14:02:11.417Z,103660.98
2018-10-18T14:04:39.674Z,103611.60
2018-10-18T14:07:07.917Z,103529.92
2018-10-18T14:09:36.178Z,103454.94
2018-10-18T14:12:04.414Z,103397.27
2018-10-18T14:17:25.517Z,103252.16
2018-10-18T14:22:58.145Z,103072.66
2018-10-18T15:22:50.260Z,102513.02
2018-10-18T16:16:49.485Z,102528.75
2018-10-18T16:19:46.310Z,102523.86
2018-10-18T16:31:01.948Z,102545.92
2018-10-18T16:33:30.250Z,102555.54
2018-10-18T16:35:58.487Z,102552.06
2018-10-18T16:38:26.760Z,102558.20
2018-10-18T17:03:40.458Z,102617.84
2018-10-18T17:06:08.652Z,102624.85
2018-10-18T17:08:36.618Z,102632.36
2018-10-18T17:11:04.954Z,102629.59
2018-10-18T17:50:03.550Z,102697.64
2018-10-18T17:52:31.697Z,102696.73
2018-10-18T17:54:59.723Z,102700.64
2018-10-18T17:57:27.862Z,102700.23
2018-10-18T17:59:56.373Z,102702.06
2018-10-18T18:02:24.765Z,102699.19
2018-10-18T18:04:52.893Z,102700.55
2018-10-18T18:07:20.983Z,102695.60
2018-10-18T18:09:49.100Z,102700.34
2018-10-18T18:12:17.198Z,102697.39
2018-10-18T18:32:52.171Z,102705.09
2018-10-18T18:35:20.294Z,102700.72
2018-10-18T18:43:43.674Z,102707.52
2018-10-18T18:46:11.761Z,102706.11
2018-10-18T18:48:39.914Z,102704.35
2018-10-18T18:51:08.090Z,102712.08
2018-10-18T18:53:36.248Z,102710.12
2018-10-18T18:56:04.321Z,102719.83
2018-10-18T18:58:32.428Z,102714.55
2018-10-18T19:01:00.529Z,102723.27
2018-10-18T19:03:28.667Z,102719.24
2018-10-18T19:05:56.747Z,102729.24
2018-10-18T19:08:24.837Z,102729.98
2018-10-18T19:10:52.942Z,102729.34
2018-10-18T19:16:35.534Z,102741.22
2018-10-18T19:19:03.979Z,102734.13
2018-10-18T19:21:32.108Z,102735.69
2018-10-18T19:24:00.200Z,102734.13
2018-10-18T19:26:28.272Z,102740.64
2018-10-18T19:28:56.354Z,102742.98
2018-10-18T19:34:19.417Z,102747.97
2018-10-18T19:36:57.963Z,102756.59
2018-10-18T19:42:28.126Z,102751.58
2018-10-18T19:50:50.700Z,102753.66
2018-10-18T19:53:18.812Z,102752.75
2018-10-18T19:55:54.156Z,102758.65
2018-10-18T19:58:22.373Z,102760.34
2018-10-18T20:00:51.847Z,102760.44
2018-10-18T20:03:19.994Z,102757.11
2018-10-18T20:05:51.426Z,102756.56
2018-10-18T20:08:23.009Z,102766.66
2018-10-18T20:10:51.102Z,102767.44
2018-10-18T20:13:23.270Z,102769.70
2018-10-18T20:31:02.062Z,102791.18
2018-10-18T20:33:30.146Z,102793.89
2018-10-18T20:36:16.531Z,102795.56
2018-10-18T20:38:45.287Z,102791.30
2018-10-18T20:44:05.853Z,102802.08
2018-10-18T20:46:46.616Z,102793.02
2018-10-18T20:49:14.570Z,102800.00
2018-10-18T20:51:42.643Z,102812.92
2018-10-18T20:54:10.785Z,102812.47
2018-10-18T20:56:38.803Z,102823.10
2018-10-18T20:59:06.901Z,102822.30
2018-10-18T21:01:34.969Z,102875.14
2018-10-18T21:04:03.041Z,102928.95
2018-10-18T21:06:31.366Z,102935.24
2018-10-18T21:08:59.261Z,102954.97
2018-10-18T21:11:27.358Z,102958.97
2018-10-18T21:16:47.609Z,102932.63
2018-10-18T21:19:15.692Z,102918.72
2018-10-18T21:21:43.771Z,102909.00
2018-10-18T21:24:11.848Z,102889.99
2018-10-18T21:26:39.932Z,102885.84
2018-10-18T21:29:08.029Z,102881.89
2018-10-18T21:34:28.639Z,102862.22
2018-10-18T22:26:57.595Z,102869.53
2018-10-18T22:32:18.490Z,102867.49
2018-10-18T22:40:41.645Z,102879.59
2018-10-18T22:43:21.566Z,102877.87
2018-10-18T22:45:55.138Z,102878.06
2018-10-18T22:48:23.218Z,102879.25
2018-10-18T22:50:51.297Z,102881.39
2018-10-18T22:53:19.382Z,102890.13
2018-10-18T22:55:47.475Z,102886.42
2018-10-18T22:58:15.597Z,102883.56
2018-10-18T23:00:49.345Z,102891.73
2018-10-18T23:03:18.875Z,102891.31
2018-10-18T23:05:47.192Z,102891.02
2018-10-18T23:08:15.366Z,102887.84
2018-10-18T23:10:43.461Z,102891.63
2018-10-18T23:16:04.617Z,102896.92
2018-10-18T23:18:32.734Z,102908.86
2018-10-18T23:21:00.851Z,102933.73
2018-10-18T23:23:28.913Z,102933.94
2018-10-18T23:25:56.984Z,102934.86
2018-10-18T23:34:19.863Z,102978.36
2018-10-18T23:36:47.953Z,102978.53
2018-10-18T23:45:10.983Z,102983.06
